createdAt,value
2022-09-07T00:00:52.326Z,3.28
2022-09-07T00:03:20.321Z,3.80
2022-09-07T00:05:50.438Z,3.33
2022-09-07T00:08:21.511Z,3.40
2022-09-07T00:10:57.409Z,3.38
2022-09-07T00:13:26.359Z,3.05
2022-09-07T00:15:53.251Z,2.90
2022-09-07T00:18:20.353Z,2.92
2022-09-07T00:20:47.128Z,3.53
2022-09-07T00:23:14.160Z,3.33
2022-09-07T00:25:41.067Z,3.40
2022-09-07T00:28:08.838Z,3.38
2022-09-07T00:30:42.157Z,3.08
2022-09-07T00:33:10.110Z,3.58
2022-09-07T00:35:41.686Z,3.33
2022-09-07T00:38:09.041Z,3.25
2022-09-07T00:40:35.871Z,3.42
2022-09-07T00:43:02.680Z,3.30
2022-09-07T00:45:29.905Z,3.05
2022-09-07T00:48:03.058Z,3.38
2022-09-07T00:50:44.023Z,2.97
2022-09-07T00:53:19.585Z,2.83
2022-09-07T00:55:49.867Z,3.13
2022-09-07T00:58:19.028Z,3.05
2022-09-07T01:00:47.971Z,3.25
2022-09-07T01:03:18.992Z,3.42
2022-09-07T01:05:55.390Z,2.83
2022-09-07T01:08:23.311Z,3.15
2022-09-07T01:10:50.320Z,3.20
2022-09-07T01:13:17.302Z,2.95
2022-09-07T01:15:44.079Z,2.85
2022-09-07T01:18:42.687Z,2.92
2022-09-07T01:21:25.868Z,3.15
2022-09-07T01:24:44.710Z,3.10
2022-09-07T01:27:52.891Z,3.10
2022-09-07T01:30:23.206Z,3.17
2022-09-07T01:33:28.834Z,3.42
2022-09-07T01:36:39.547Z,3.35
2022-09-07T01:39:06.925Z,2.85
2022-09-07T01:41:43.748Z,3.20
2022-09-07T01:44:38.249Z,3.42
2022-09-07T01:47:35.621Z,3.03
2022-09-07T01:50:28.210Z,2.90
2022-09-07T01:53:28.485Z,3.67
2022-09-07T01:56:01.523Z,3.08
2022-09-07T01:58:51.806Z,3.55
2022-09-07T02:01:36.568Z,3.25
2022-09-07T02:04:14.694Z,3.08
2022-09-07T02:06:51.614Z,3.45
2022-09-07T02:09:56.832Z,3.60
2022-09-07T02:13:15.871Z,3.20
2022-09-07T02:15:45.968Z,3.10
2022-09-07T02:18:14.288Z,2.90
2022-09-07T02:20:48.980Z,3.22
2022-09-07T02:23:25.724Z,2.83
2022-09-07T02:26:07.366Z,3.03
2022-09-07T02:28:36.698Z,2.85
2022-09-07T02:31:03.863Z,3.08
2022-09-07T02:33:31.289Z,3.67
2022-09-07T02:35:58.972Z,3.40
2022-09-07T02:38:26.141Z,3.67
2022-09-07T02:40:55.421Z,3.63
2022-09-07T02:43:24.575Z,3.58
2022-09-07T02:46:15.813Z,3.75
2022-09-07T02:49:17.387Z,3.10
2022-09-07T02:52:07.300Z,3.20
2022-09-07T02:55:13.472Z,3.60
2022-09-07T02:58:01.542Z,3.10
2022-09-07T03:00:35.258Z,3.30
2022-09-07T03:03:55.688Z,3.40
2022-09-07T03:06:38.447Z,3.63
2022-09-07T03:09:19.210Z,2.80
2022-09-07T03:11:46.510Z,3.35
2022-09-07T03:14:19.127Z,2.90
2022-09-07T03:16:49.557Z,3.17
2022-09-07T03:19:16.715Z,3.70
2022-09-07T03:21:43.989Z,3.40
2022-09-07T03:24:10.889Z,3.22
2022-09-07T03:26:46.294Z,3.30
2022-09-07T03:29:13.503Z,2.67
2022-09-07T03:31:40.547Z,3.20
2022-09-07T03:34:07.594Z,2.85
2022-09-07T03:36:34.770Z,2.95
2022-09-07T03:39:02.334Z,2.97
2022-09-07T03:41:29.365Z,2.95
2022-09-07T03:43:56.125Z,3.30
2022-09-07T03:46:23.017Z,2.70
2022-09-07T03:48:50.472Z,2.75
2022-09-07T03:51:18.476Z,2.60
2022-09-07T03:53:47.384Z,2.67
2022-09-07T03:56:21.464Z,3.17
2022-09-07T03:58:49.551Z,3.40
2022-09-07T04:01:21.077Z,3.03
2022-09-07T04:03:48.252Z,3.00
2022-09-07T04:06:16.403Z,2.83
2022-09-07T04:08:43.685Z,2.78
2022-09-07T04:11:16.102Z,2.72
2022-09-07T04:13:43.315Z,2.92
2022-09-07T04:16:12.521Z,2.50
2022-09-07T04:18:39.423Z,3.30
2022-09-07T04:21:06.741Z,3.33
2022-09-07T04:23:34.336Z,2.85
2022-09-07T04:26:01.035Z,2.55
2022-09-07T04:28:27.849Z,2.72
2022-09-07T04:30:54.640Z,3.00
2022-09-07T04:33:21.695Z,2.65
2022-09-07T04:35:48.571Z,3.17
2022-09-07T04:38:16.539Z,2.72
2022-09-07T04:40:43.953Z,3.47
2022-09-07T04:43:13.091Z,3.17
2022-09-07T04:45:40.333Z,2.88
2022-09-07T04:48:07.836Z,2.92
2022-09-07T04:50:34.780Z,2.90
2022-09-07T04:53:01.663Z,2.97
2022-09-07T04:55:28.369Z,2.30
2022-09-07T04:57:55.112Z,3.03
2022-09-07T05:00:22.188Z,2.33
2022-09-07T05:02:49.134Z,2.70
2022-09-07T05:05:15.975Z,2.47
2022-09-07T05:07:42.857Z,3.03
2022-09-07T05:10:09.712Z,2.97
2022-09-07T05:12:36.453Z,2.67
2022-09-07T05:15:04.192Z,2.70
2022-09-07T05:17:31.180Z,3.03
2022-09-07T05:19:58.400Z,2.70
2022-09-07T05:22:25.358Z,2.30
2022-09-07T05:24:52.123Z,3.15
2022-09-07T05:27:19.156Z,2.30
2022-09-07T05:30:03.759Z,2.60
2022-09-07T05:32:31.759Z,2.67
2022-09-07T05:34:58.756Z,2.67
2022-09-07T05:37:25.474Z,2.65
2022-09-07T05:39:54.962Z,3.15
2022-09-07T05:42:22.712Z,3.03
2022-09-07T05:44:49.448Z,2.75
2022-09-07T05:47:16.303Z,2.67
2022-09-07T05:49:43.134Z,2.65
2022-09-07T05:52:11.130Z,2.55
2022-09-07T05:54:38.055Z,2.83
2022-09-07T05:57:05.125Z,2.95
2022-09-07T05:59:32.162Z,2.67
2022-09-07T06:01:59.538Z,2.65
2022-09-07T06:04:26.380Z,2.92
2022-09-07T06:07:20.175Z,2.75
2022-09-07T06:12:27.817Z,3.30
2022-09-07T06:14:54.864Z,2.72
2022-09-07T06:17:21.648Z,2.70
2022-09-07T06:19:48.371Z,2.47
2022-09-07T06:22:15.233Z,3.20
2022-09-07T06:24:41.941Z,3.05
2022-09-07T06:27:08.722Z,3.45
2022-09-07T06:29:35.671Z,2.90
2022-09-07T06:34:49.542Z,2.67
2022-09-07T06:37:16.721Z,3.33
2022-09-07T06:39:43.516Z,2.95
2022-09-07T06:42:10.318Z,2.90
2022-09-07T06:44:37.037Z,2.53
2022-09-07T06:47:04.616Z,3.00
2022-09-07T06:49:31.733Z,3.70
2022-09-07T06:51:58.846Z,3.60
2022-09-07T06:57:12.245Z,3.60
2022-09-07T06:59:39.375Z,3.03
2022-09-07T07:02:07.157Z,3.20
2022-09-07T07:04:39.579Z,3.22
2022-09-07T07:07:14.131Z,2.88
2022-09-07T07:09:41.774Z,3.10
2022-09-07T07:12:10.498Z,3.38
2022-09-07T07:14:41.113Z,3.70
2022-09-07T07:17:10.947Z,4.90
2022-09-07T07:19:37.636Z,3.60
2022-09-07T07:22:42.976Z,3.95
2022-09-07T07:24:51.071Z,3.67
2022-09-07T07:27:17.866Z,3.20
2022-09-07T07:29:45.717Z,3.22
2022-09-07T07:32:12.478Z,3.35
2022-09-07T07:34:39.210Z,4.50
2022-09-07T07:37:06.054Z,3.80
2022-09-07T07:42:21.159Z,3.65
2022-09-07T07:44:48.701Z,3.75
2022-09-07T07:47:15.542Z,3.58
2022-09-07T07:49:42.227Z,3.70
2022-09-07T07:54:55.689Z,3.83
2022-09-07T07:57:22.537Z,4.03
2022-09-07T07:59:49.483Z,4.53
2022-09-07T08:02:16.901Z,4.15
2022-09-07T08:04:43.836Z,3.58
2022-09-07T08:07:14.164Z,3.83
2022-09-07T08:09:42.877Z,3.55
2022-09-07T08:12:13.776Z,3.85
2022-09-07T08:14:41.705Z,3.65
2022-09-07T08:17:14.215Z,3.97
2022-09-07T08:19:41.377Z,4.50
2022-09-07T08:22:10.816Z,3.97
2022-09-07T08:24:37.669Z,4.00
2022-09-07T08:27:04.867Z,3.80
2022-09-07T08:29:34.556Z,4.10
2022-09-07T08:32:02.337Z,4.50
2022-09-07T08:34:29.017Z,4.00
2022-09-07T08:36:55.640Z,4.63
2022-09-07T08:39:22.322Z,4.10
2022-09-07T08:42:01.421Z,3.90
2022-09-07T08:44:58.487Z,3.90
2022-09-07T08:47:35.183Z,4.65
2022-09-07T08:50:28.875Z,4.20
2022-09-07T08:53:03.158Z,4.80
2022-09-07T08:55:40.556Z,4.70
2022-09-07T08:58:45.243Z,4.47
2022-09-07T09:01:32.519Z,3.95
2022-09-07T09:04:16.714Z,4.88
2022-09-07T09:07:07.354Z,4.13
2022-09-07T09:10:18.442Z,5.43
2022-09-07T09:13:12.646Z,4.68
2022-09-07T09:15:52.397Z,4.05
2022-09-07T09:18:33.783Z,4.05
2022-09-07T09:21:01.542Z,4.53
2022-09-07T09:23:37.120Z,5.30
2022-09-07T09:26:20.574Z,4.90
2022-09-07T09:28:47.191Z,5.57
2022-09-07T09:31:36.059Z,5.05
2022-09-07T09:34:05.708Z,5.05
2022-09-07T09:36:44.381Z,5.20
2022-09-07T09:39:36.590Z,4.68
2022-09-07T09:42:16.660Z,5.00
2022-09-07T09:44:45.361Z,4.80
2022-09-07T09:47:33.626Z,4.53
2022-09-07T09:53:34.352Z,5.50
2022-09-07T09:56:03.591Z,4.80
2022-09-07T10:01:35.308Z,5.40
2022-09-07T10:04:24.766Z,4.70
2022-09-07T10:07:16.777Z,5.18
2022-09-07T10:09:54.099Z,5.47
2022-09-07T10:12:36.430Z,5.40
2022-09-07T10:15:07.546Z,4.78
2022-09-07T10:17:43.399Z,4.88
2022-09-07T10:20:16.101Z,4.53
2022-09-07T10:22:51.739Z,4.85
2022-09-07T10:25:45.647Z,4.90
2022-09-07T10:28:15.359Z,5.85
2022-09-07T10:31:15.469Z,5.25
2022-09-07T10:37:09.540Z,5.78
2022-09-07T10:40:16.263Z,6.22
2022-09-07T10:43:26.319Z,5.10
2022-09-07T10:46:01.657Z,6.50
2022-09-07T10:48:54.568Z,5.75
2022-09-07T10:51:30.549Z,5.55
2022-09-07T10:54:30.670Z,5.70
2022-09-07T10:57:15.764Z,5.57
2022-09-07T11:00:11.315Z,6.03
2022-09-07T11:05:55.454Z,5.80
2022-09-07T11:12:04.063Z,6.05
2022-09-07T11:14:52.617Z,6.15
2022-09-07T11:17:25.022Z,5.88
2022-09-07T11:20:03.485Z,6.53
2022-09-07T11:23:24.397Z,6.32
2022-09-07T11:26:39.919Z,6.95
2022-09-07T11:29:33.320Z,6.50
2022-09-07T11:32:11.982Z,5.78
2022-09-07T11:35:35.975Z,6.53
2022-09-07T11:38:19.991Z,5.30
2022-09-07T11:41:02.698Z,5.97
2022-09-07T11:43:38.127Z,5.57
2022-09-07T11:46:21.944Z,6.25
2022-09-07T11:49:19.192Z,5.10
2022-09-07T11:52:21.569Z,6.25
2022-09-07T11:55:05.922Z,5.30
2022-09-07T11:58:29.913Z,5.70
2022-09-07T12:01:05.265Z,5.60
2022-09-07T12:04:13.237Z,5.65
2022-09-07T12:06:55.991Z,5.20
2022-09-07T12:10:03.198Z,5.25
2022-09-07T12:12:51.602Z,5.68
2022-09-07T12:15:27.361Z,5.93
2022-09-07T12:18:23.209Z,5.55
2022-09-07T12:20:50.006Z,5.88
2022-09-07T12:23:16.821Z,6.28
2022-09-07T12:25:49.012Z,6.40
2022-09-07T12:28:35.983Z,5.30
2022-09-07T12:31:12.298Z,5.68
2022-09-07T12:33:40.539Z,5.80
2022-09-07T12:36:41.318Z,5.85
2022-09-07T12:39:25.518Z,5.95
2022-09-07T12:45:29.771Z,6.07
2022-09-07T12:48:04.623Z,6.00
2022-09-07T12:50:42.434Z,6.78
2022-09-07T12:53:35.773Z,5.75
2022-09-07T12:56:34.322Z,6.07
2022-09-07T12:59:58.296Z,5.50
2022-09-07T13:02:39.005Z,5.88
2022-09-07T13:05:37.658Z,5.65
2022-09-07T13:08:16.977Z,6.47
2022-09-07T13:10:44.339Z,6.03
2022-09-07T13:19:46.891Z,5.53
2022-09-07T13:22:35.129Z,6.30
2022-09-07T13:25:27.102Z,6.40
2022-09-07T13:28:15.768Z,5.47
2022-09-07T13:31:24.819Z,6.10
2022-09-07T13:33:53.652Z,5.70
2022-09-07T13:36:33.640Z,6.00
2022-09-07T13:39:00.595Z,7.75
2022-09-07T13:41:43.239Z,7.93
2022-09-07T13:44:25.939Z,5.95
2022-09-07T13:47:01.364Z,6.13
2022-09-07T13:49:56.282Z,6.32
2022-09-07T13:52:47.256Z,5.63
2022-09-07T13:56:05.280Z,6.10
2022-09-07T13:58:39.990Z,6.00
2022-09-07T14:01:28.079Z,6.10
2022-09-07T14:04:06.595Z,6.35
2022-09-07T14:06:38.421Z,5.70
2022-09-07T14:09:20.198Z,5.82
2022-09-07T14:11:54.328Z,6.28
2022-09-07T14:14:33.295Z,6.00
2022-09-07T14:17:00.027Z,5.80
2022-09-07T14:19:35.755Z,5.85
2022-09-07T14:22:12.508Z,5.70
2022-09-07T14:24:53.022Z,6.53
2022-09-07T14:27:40.523Z,6.22
2022-09-07T14:30:19.092Z,5.63
2022-09-07T14:32:52.894Z,5.78
2022-09-07T14:35:24.470Z,6.07
2022-09-07T14:37:52.279Z,5.70
2022-09-07T14:40:26.117Z,5.80
2022-09-07T14:42:55.664Z,5.50
2022-09-07T14:45:22.182Z,5.63
2022-09-07T14:47:52.726Z,7.00
2022-09-07T14:50:36.997Z,6.13
2022-09-07T14:56:03.609Z,6.20
2022-09-07T14:58:32.380Z,5.68
2022-09-07T15:04:01.835Z,6.72
2022-09-07T15:09:36.123Z,6.57
2022-09-07T15:12:27.257Z,6.70
2022-09-07T15:14:56.621Z,6.63
2022-09-07T15:17:48.162Z,6.43
2022-09-07T15:20:37.211Z,6.10
2022-09-07T15:23:15.853Z,6.32
2022-09-07T15:25:49.850Z,6.63
2022-09-07T15:34:12.625Z,6.30
2022-09-07T15:36:43.985Z,7.13
2022-09-07T15:39:28.019Z,6.20
2022-09-07T15:41:55.273Z,6.18
2022-09-07T15:44:26.115Z,6.30
2022-09-07T15:49:47.329Z,6.28
2022-09-07T15:52:14.266Z,6.45
2022-09-07T15:54:40.917Z,6.82
2022-09-07T15:59:54.259Z,6.07
2022-09-07T16:05:08.759Z,6.97
2022-09-07T16:10:22.146Z,6.88
2022-09-07T16:13:10.900Z,5.88
2022-09-07T16:15:45.165Z,6.65
2022-09-07T16:18:18.172Z,6.45
2022-09-07T16:20:45.913Z,6.90
2022-09-07T16:23:15.652Z,6.28
2022-09-07T16:25:58.979Z,5.97
2022-09-07T16:28:27.216Z,6.72
2022-09-07T16:30:54.623Z,6.78
2022-09-07T16:33:21.378Z,6.55
2022-09-07T16:36:03.500Z,6.78
2022-09-07T16:38:47.586Z,7.32
2022-09-07T16:41:27.405Z,6.93
2022-09-07T16:43:54.787Z,7.30
2022-09-07T16:46:25.922Z,6.65
2022-09-07T16:48:53.153Z,7.93
2022-09-07T16:51:21.405Z,6.40
2022-09-07T16:53:51.064Z,7.25
2022-09-07T16:56:21.030Z,7.65
2022-09-07T16:58:55.229Z,8.27
2022-09-07T17:01:27.184Z,7.72
2022-09-07T17:03:54.090Z,9.10
2022-09-07T17:06:24.690Z,7.30
2022-09-07T17:08:52.144Z,7.43
2022-09-07T17:11:29.733Z,7.07
2022-09-07T17:13:57.997Z,7.10
2022-09-07T17:16:33.870Z,8.85
2022-09-07T17:21:53.661Z,8.23
2022-09-07T17:24:20.890Z,8.65
2022-09-07T17:26:47.818Z,7.72
2022-09-07T17:29:15.041Z,7.43
2022-09-07T17:34:30.417Z,7.70
2022-09-07T17:36:57.634Z,7.25
2022-09-07T17:39:24.310Z,6.68
2022-09-07T17:41:54.543Z,7.90
2022-09-07T17:44:23.676Z,8.60
2022-09-07T17:46:50.967Z,7.80
2022-09-07T17:49:17.883Z,8.55
2022-09-07T17:51:45.837Z,8.32
2022-09-07T17:54:17.217Z,8.18
2022-09-07T17:56:44.693Z,8.50
2022-09-07T18:01:59.011Z,7.65
2022-09-07T18:04:25.868Z,7.63
2022-09-07T18:06:54.142Z,8.40
2022-09-07T18:09:21.707Z,8.50
2022-09-07T18:11:49.641Z,7.82
2022-09-07T18:14:18.034Z,7.22
2022-09-07T18:16:46.643Z,8.02
2022-09-07T18:19:13.719Z,7.80
2022-09-07T18:21:42.980Z,8.75
2022-09-07T18:24:20.152Z,8.43
2022-09-07T18:26:50.635Z,8.52
2022-09-07T18:29:36.808Z,8.38
2022-09-07T18:32:09.507Z,8.05
2022-09-07T18:34:38.467Z,7.63
2022-09-07T18:37:06.031Z,8.05
2022-09-07T18:39:33.509Z,8.25
2022-09-07T18:42:00.268Z,7.68
2022-09-07T18:47:22.122Z,8.25
2022-09-07T18:49:51.533Z,8.40
2022-09-07T18:55:07.907Z,8.77
2022-09-07T18:57:36.175Z,8.57
2022-09-07T19:00:08.555Z,8.93
2022-09-07T19:02:36.039Z,9.63
2022-09-07T19:07:49.873Z,8.43
2022-09-07T19:10:17.643Z,9.57
2022-09-07T19:12:46.151Z,9.65
2022-09-07T19:15:13.738Z,8.65
2022-09-07T19:17:40.446Z,8.75
2022-09-07T19:20:07.774Z,8.75
2022-09-07T19:22:34.528Z,9.07
2022-09-07T19:25:01.129Z,8.52
2022-09-07T19:27:27.807Z,8.88
2022-09-07T19:29:54.419Z,8.80
2022-09-07T19:32:21.816Z,8.60
2022-09-07T19:34:54.309Z,8.77
2022-09-07T19:37:25.593Z,9.15
2022-09-07T19:39:55.195Z,8.40
2022-09-07T19:42:22.523Z,8.55
2022-09-07T19:44:49.722Z,8.38
2022-09-07T19:47:16.667Z,8.95
2022-09-07T19:49:43.555Z,8.68
2022-09-07T19:52:10.229Z,8.82
2022-09-07T19:54:37.116Z,10.13
2022-09-07T19:57:05.061Z,8.45
2022-09-07T19:59:31.737Z,10.35
2022-09-07T20:01:58.465Z,10.07
2022-09-07T20:04:25.225Z,10.45
2022-09-07T20:06:52.043Z,9.85
2022-09-07T20:09:20.198Z,9.82
2022-09-07T20:11:47.988Z,8.73
2022-09-07T20:14:16.055Z,8.60
2022-09-07T20:16:43.455Z,8.13
2022-09-07T20:19:14.888Z,7.70
2022-09-07T20:21:42.945Z,7.88
2022-09-07T20:24:12.388Z,7.57
2022-09-07T20:26:39.259Z,8.27
2022-09-07T20:29:26.142Z,7.40
2022-09-07T20:31:53.687Z,8.07
2022-09-07T20:34:20.489Z,7.82
2022-09-07T20:36:50.194Z,8.65
2022-09-07T20:39:17.676Z,7.45
2022-09-07T20:41:44.504Z,7.78
2022-09-07T20:44:11.193Z,7.72
2022-09-07T20:46:37.986Z,7.05
2022-09-07T20:49:05.259Z,6.82
2022-09-07T20:51:32.428Z,6.80
2022-09-07T20:53:59.183Z,6.15
2022-09-07T20:56:28.478Z,6.32
2022-09-07T20:58:59.901Z,6.47
2022-09-07T21:01:28.226Z,5.88
2022-09-07T21:03:57.928Z,5.95
2022-09-07T21:06:26.963Z,5.60
2022-09-07T21:08:56.186Z,5.75
2022-09-07T21:11:35.129Z,6.50
2022-09-07T21:14:08.052Z,6.05
2022-09-07T21:16:36.322Z,6.90
2022-09-07T21:19:10.935Z,6.13
2022-09-07T21:21:40.689Z,6.38
2022-09-07T21:24:16.833Z,6.28
2022-09-07T21:26:43.594Z,6.05
2022-09-07T21:29:18.437Z,5.80
2022-09-07T21:31:45.431Z,5.90
2022-09-07T21:34:12.311Z,6.80
2022-09-07T21:36:38.919Z,6.72
2022-09-07T21:39:07.256Z,6.03
2022-09-07T21:41:35.638Z,6.65
2022-09-07T21:44:04.210Z,6.40
2022-09-07T21:46:33.235Z,6.93
2022-09-07T21:49:00.489Z,7.05
2022-09-07T21:51:27.736Z,6.97
2022-09-07T21:53:57.514Z,7.72
2022-09-07T21:56:25.481Z,7.35
2022-09-07T21:58:57.191Z,7.25
2022-09-07T22:01:26.196Z,7.95
2022-09-07T22:03:56.371Z,7.25
2022-09-07T22:06:24.256Z,6.93
2022-09-07T22:08:51.166Z,7.68
2022-09-07T22:11:21.351Z,7.53
2022-09-07T22:13:48.157Z,7.93
2022-09-07T22:16:15.734Z,7.68
2022-09-07T22:18:45.353Z,7.90
2022-09-07T22:21:17.672Z,7.60
2022-09-07T22:23:49.077Z,8.00
2022-09-07T22:26:20.990Z,7.40
2022-09-07T22:28:48.012Z,7.68
2022-09-07T22:31:21.930Z,8.10
2022-09-07T22:33:50.110Z,7.32
2022-09-07T22:36:28.484Z,7.05
2022-09-07T22:39:01.351Z,7.28
2022-09-07T22:41:34.395Z,7.00
2022-09-07T22:44:02.593Z,7.22
2022-09-07T22:46:34.172Z,6.88
2022-09-07T22:49:01.809Z,7.53
2022-09-07T22:51:28.626Z,6.75
2022-09-07T22:53:55.947Z,7.63
2022-09-07T22:56:29.302Z,7.15
2022-09-07T22:59:00.314Z,7.65
2022-09-07T23:01:29.077Z,7.60
2022-09-07T23:03:56.532Z,7.43
2022-09-07T23:06:46.196Z,7.82
2022-09-07T23:09:17.946Z,7.25
2022-09-07T23:11:46.857Z,7.30
2022-09-07T23:14:21.952Z,7.18
2022-09-07T23:16:49.315Z,7.25
2022-09-07T23:19:19.432Z,6.82
2022-09-07T23:21:46.697Z,7.28
2022-09-07T23:24:16.229Z,6.88
2022-09-07T23:26:43.601Z,6.65
2022-09-07T23:29:12.831Z,7.25
2022-09-07T23:31:40.254Z,8.30
2022-09-07T23:34:07.699Z,7.07
2022-09-07T23:36:34.758Z,6.85
2022-09-07T23:39:01.695Z,6.93
2022-09-07T23:41:28.860Z,6.80
2022-09-07T23:43:55.947Z,7.03
2022-09-07T23:46:23.158Z,7.47
2022-09-07T23:48:50.319Z,6.50
2022-09-07T23:51:22.726Z,7.28
2022-09-07T23:53:50.531Z,7.07
2022-09-07T23:56:17.169Z,6.13
2022-09-07T23:58:43.919Z,7.18
